createdAt,value
2022-12-04T00:02:18.029Z,74.06
2022-12-04T00:04:45.072Z,73.89
2022-12-04T00:07:11.832Z,73.93
2022-12-04T00:09:38.513Z,73.97
2022-12-04T00:12:05.290Z,74.31
2022-12-04T00:14:31.828Z,74.51
2022-12-04T00:16:58.556Z,74.00
2022-12-04T00:19:25.296Z,74.25
2022-12-04T00:21:51.880Z,74.25
2022-12-04T00:24:18.481Z,74.55
2022-12-04T00:26:45.150Z,74.19
2022-12-04T00:29:14.415Z,74.83
2022-12-04T00:31:40.969Z,74.80
2022-12-04T00:34:08.407Z,74.18
2022-12-04T00:36:35.116Z,73.91
2022-12-04T00:39:01.816Z,74.24
2022-12-04T00:41:28.877Z,74.64
2022-12-04T00:43:55.493Z,74.49
2022-12-04T00:46:22.375Z,74.26
2022-12-04T00:48:48.956Z,74.81
2022-12-04T00:51:16.253Z,74.71
2022-12-04T00:53:42.944Z,75.17
2022-12-04T00:56:10.628Z,74.90
2022-12-04T00:58:37.179Z,74.99
2022-12-04T01:01:04.949Z,74.86
2022-12-04T01:03:31.760Z,75.05
2022-12-04T01:05:58.471Z,74.22
2022-12-04T01:08:25.130Z,75.23
2022-12-04T01:10:51.799Z,75.47
2022-12-04T01:13:18.362Z,74.89
2022-12-04T01:15:44.893Z,74.49
2022-12-04T01:18:12.327Z,75.02
2022-12-04T01:20:38.978Z,74.54
2022-12-04T01:23:05.515Z,75.00
2022-12-04T01:25:32.085Z,74.37
2022-12-04T01:27:58.671Z,75.09
2022-12-04T01:30:25.169Z,75.62
2022-12-04T01:32:51.655Z,75.24
2022-12-04T01:35:18.119Z,75.01
2022-12-04T01:37:44.624Z,75.11
2022-12-04T01:40:15.183Z,75.31
2022-12-04T01:42:42.073Z,75.39
2022-12-04T01:45:27.546Z,75.07
2022-12-04T01:47:54.555Z,74.58
2022-12-04T01:50:21.179Z,74.87
2022-12-04T01:52:47.918Z,75.17
2022-12-04T01:55:14.548Z,75.05
2022-12-04T01:57:42.666Z,75.11
2022-12-04T02:00:10.694Z,75.24
2022-12-04T02:02:39.417Z,75.11
2022-12-04T02:05:07.680Z,74.71
2022-12-04T02:07:34.258Z,75.08
2022-12-04T02:10:06.361Z,74.68
2022-12-04T02:12:33.941Z,75.01
2022-12-04T02:15:06.512Z,74.94
2022-12-04T02:17:51.367Z,75.40
2022-12-04T02:20:17.832Z,75.52
2022-12-04T02:22:50.182Z,75.89
2022-12-04T02:25:22.744Z,75.47
2022-12-04T02:28:00.042Z,75.77
2022-12-04T02:30:27.284Z,76.28
2022-12-04T02:32:57.252Z,74.49
2022-12-04T02:35:23.866Z,74.81
2022-12-04T02:37:52.411Z,74.62
2022-12-04T02:40:25.366Z,75.06
2022-12-04T02:42:54.429Z,75.11
2022-12-04T02:45:22.229Z,74.94
2022-12-04T02:47:48.773Z,74.54
2022-12-04T02:50:16.606Z,74.90
2022-12-04T02:52:44.640Z,75.27
2022-12-04T02:55:14.965Z,74.91
2022-12-04T02:57:42.382Z,73.17
2022-12-04T03:00:09.197Z,73.84
2022-12-04T03:02:38.354Z,74.53
2022-12-04T03:05:05.941Z,74.72
2022-12-04T03:07:38.279Z,75.31
2022-12-04T03:10:12.391Z,74.84
2022-12-04T03:12:45.115Z,75.06
2022-12-04T03:15:28.340Z,75.18
2022-12-04T03:18:00.904Z,74.93
2022-12-04T03:20:28.181Z,75.00
2022-12-04T03:22:55.372Z,74.75
2022-12-04T03:25:23.311Z,74.84
2022-12-04T03:28:00.900Z,74.94
2022-12-04T03:30:27.552Z,75.18
2022-12-04T03:32:57.156Z,74.29
2022-12-04T03:35:25.393Z,75.15
2022-12-04T03:38:00.730Z,75.11
2022-12-04T03:40:44.321Z,75.40
2022-12-04T03:43:16.415Z,75.75
2022-12-04T03:45:44.574Z,75.56
2022-12-04T03:48:11.093Z,74.89
2022-12-04T03:50:47.858Z,74.92
2022-12-04T03:53:17.431Z,75.74
2022-12-04T03:55:45.799Z,75.68
2022-12-04T03:58:14.025Z,75.28
2022-12-04T04:00:41.742Z,75.27
2022-12-04T04:03:13.294Z,75.12
2022-12-04T04:05:41.777Z,74.71
2022-12-04T04:08:26.724Z,74.83
2022-12-04T04:10:54.059Z,75.07
2022-12-04T04:13:43.928Z,74.42
2022-12-04T04:16:28.840Z,74.91
2022-12-04T04:19:14.442Z,74.28
2022-12-04T04:21:59.838Z,74.01
2022-12-04T04:24:29.269Z,74.18
2022-12-04T04:26:55.863Z,74.14
2022-12-04T04:29:23.001Z,74.61
2022-12-04T04:31:56.232Z,74.60
2022-12-04T04:34:32.722Z,74.57
2022-12-04T04:37:01.573Z,74.97
2022-12-04T04:39:35.209Z,75.23
2022-12-04T04:42:07.429Z,74.96
2022-12-04T04:44:57.357Z,74.51
2022-12-04T04:47:27.629Z,74.27
2022-12-04T04:49:55.184Z,75.18
2022-12-04T04:52:21.989Z,75.27
2022-12-04T04:54:48.601Z,75.42
2022-12-04T04:57:25.739Z,75.18
2022-12-04T04:59:52.416Z,74.79
2022-12-04T05:02:19.064Z,75.90
2022-12-04T05:04:45.583Z,75.90
2022-12-04T05:07:12.119Z,75.46
2022-12-04T05:09:41.339Z,75.56
2022-12-04T05:12:08.784Z,75.06
2022-12-04T05:14:35.296Z,75.34
2022-12-04T05:17:02.446Z,75.60
2022-12-04T05:19:51.134Z,75.52
2022-12-04T05:22:17.906Z,75.43
2022-12-04T05:24:44.448Z,75.36
2022-12-04T05:27:11.173Z,74.48
2022-12-04T05:29:37.786Z,74.49
2022-12-04T05:32:04.658Z,75.06
2022-12-04T05:34:31.172Z,74.38
2022-12-04T05:36:57.646Z,74.89
2022-12-04T05:39:24.135Z,75.06
2022-12-04T05:41:50.645Z,75.40
2022-12-04T05:44:17.199Z,75.39
2022-12-04T05:46:43.876Z,75.38
2022-12-04T05:49:10.470Z,75.25
2022-12-04T05:51:37.183Z,75.13
2022-12-04T05:54:03.744Z,75.47
2022-12-04T05:56:30.266Z,76.01
2022-12-04T05:58:56.851Z,76.16
2022-12-04T06:01:23.981Z,75.66
2022-12-04T06:03:50.825Z,76.08
2022-12-04T06:06:25.483Z,75.66
2022-12-04T06:08:52.743Z,76.09
2022-12-04T06:11:20.787Z,76.13
2022-12-04T06:13:47.868Z,75.25
2022-12-04T06:16:15.652Z,74.58
2022-12-04T06:18:42.280Z,75.47
2022-12-04T06:21:08.988Z,75.15
2022-12-04T06:23:35.464Z,75.37
2022-12-04T06:26:06.902Z,74.97
2022-12-04T06:28:34.496Z,75.67
2022-12-04T06:31:05.095Z,75.86
2022-12-04T06:33:31.698Z,75.63
2022-12-04T06:36:02.592Z,75.47
2022-12-04T06:38:30.331Z,75.34
2022-12-04T06:40:56.911Z,75.41
2022-12-04T06:43:23.650Z,75.61
2022-12-04T06:45:59.265Z,75.80
2022-12-04T06:48:25.873Z,76.30
2022-12-04T06:50:58.244Z,75.06
2022-12-04T06:53:24.859Z,75.28
2022-12-04T06:55:51.417Z,75.56
2022-12-04T06:58:18.122Z,75.23
2022-12-04T07:00:44.907Z,75.55
2022-12-04T07:03:11.488Z,75.03
2022-12-04T07:05:38.457Z,75.48
2022-12-04T07:08:05.226Z,75.48
2022-12-04T07:10:32.171Z,75.89
2022-12-04T07:12:58.682Z,75.91
2022-12-04T07:15:25.376Z,75.60
2022-12-04T07:17:52.243Z,76.32
2022-12-04T07:20:18.811Z,75.86
2022-12-04T07:22:45.368Z,75.68
2022-12-04T07:25:11.903Z,75.73
2022-12-04T07:27:38.403Z,75.93
2022-12-04T07:30:08.794Z,75.73
2022-12-04T07:32:37.939Z,75.79
2022-12-04T07:35:05.276Z,75.92
2022-12-04T07:37:32.468Z,75.53
2022-12-04T07:39:59.034Z,75.26
2022-12-04T07:42:25.527Z,75.53
2022-12-04T07:44:52.147Z,75.23
2022-12-04T07:47:18.706Z,75.06
2022-12-04T07:49:45.246Z,75.28
2022-12-04T07:52:11.793Z,75.13
2022-12-04T07:54:38.331Z,75.49
2022-12-04T07:57:04.841Z,75.37
2022-12-04T07:59:31.441Z,75.71
2022-12-04T08:01:58.362Z,74.38
2022-12-04T08:04:25.129Z,74.36
2022-12-04T08:06:51.827Z,74.54
2022-12-04T08:09:18.359Z,75.01
2022-12-04T08:11:44.965Z,75.09
2022-12-04T08:14:11.613Z,75.01
2022-12-04T08:16:38.270Z,75.24
2022-12-04T08:19:05.536Z,75.10
2022-12-04T08:21:32.090Z,75.29
2022-12-04T08:23:59.416Z,74.73
2022-12-04T08:26:26.621Z,74.92
2022-12-04T08:28:53.722Z,74.99
2022-12-04T08:31:21.455Z,74.80
2022-12-04T08:33:49.044Z,74.90
2022-12-04T08:36:16.528Z,74.34
2022-12-04T08:38:43.431Z,74.73
2022-12-04T08:41:11.809Z,74.90
2022-12-04T08:43:41.438Z,75.32
2022-12-04T08:46:12.994Z,75.01
2022-12-04T08:48:39.713Z,74.23
2022-12-04T08:51:13.727Z,74.51
2022-12-04T08:53:43.416Z,74.61
2022-12-04T08:56:10.181Z,74.46
2022-12-04T08:58:37.797Z,74.21
2022-12-04T09:03:52.464Z,74.48
2022-12-04T09:06:19.720Z,74.31
2022-12-04T09:08:46.573Z,74.37
2022-12-04T09:11:14.279Z,74.01
2022-12-04T09:13:41.003Z,74.38
2022-12-04T09:16:11.334Z,74.81
2022-12-04T09:18:38.264Z,74.77
2022-12-04T09:21:08.656Z,73.52
2022-12-04T09:23:35.617Z,74.08
2022-12-04T09:26:02.779Z,74.71
2022-12-04T09:28:32.482Z,75.14
2022-12-04T09:31:01.413Z,74.29
2022-12-04T09:33:29.117Z,73.79
2022-12-04T09:35:55.803Z,74.06
2022-12-04T09:38:22.512Z,74.07
2022-12-04T09:41:12.566Z,74.33
2022-12-04T09:43:53.890Z,74.58
2022-12-04T09:46:29.586Z,74.17
2022-12-04T09:48:58.232Z,74.66
2022-12-04T09:51:28.017Z,73.91
2022-12-04T09:54:12.444Z,73.75
2022-12-04T09:56:59.633Z,74.12
2022-12-04T09:59:28.153Z,74.48
2022-12-04T10:02:10.478Z,73.76
2022-12-04T10:04:37.588Z,74.57
2022-12-04T10:07:09.130Z,74.48
2022-12-04T10:09:40.315Z,74.14
2022-12-04T10:12:25.708Z,74.06
2022-12-04T10:14:54.999Z,74.53
2022-12-04T10:17:40.285Z,74.67
2022-12-04T10:20:25.524Z,74.36
2022-12-04T10:23:13.382Z,74.25
2022-12-04T10:25:40.356Z,74.51
2022-12-04T10:28:12.922Z,74.02
2022-12-04T10:30:39.846Z,73.75
2022-12-04T10:33:18.819Z,73.20
2022-12-04T10:35:46.540Z,74.22
2022-12-04T10:38:20.546Z,74.55
2022-12-04T10:40:51.236Z,74.56
2022-12-04T10:43:23.709Z,74.60
2022-12-04T10:45:50.207Z,75.12
2022-12-04T10:48:19.819Z,74.36
2022-12-04T10:50:46.433Z,73.75
2022-12-04T10:53:14.472Z,74.44
2022-12-04T10:55:41.213Z,73.92
2022-12-04T10:58:20.734Z,73.75
2022-12-04T11:00:59.629Z,74.11
2022-12-04T11:03:27.419Z,74.43
2022-12-04T11:05:57.536Z,73.23
2022-12-04T11:08:25.542Z,74.10
2022-12-04T11:10:57.170Z,74.03
2022-12-04T11:13:24.511Z,73.73
2022-12-04T11:15:52.362Z,73.54
2022-12-04T11:18:20.270Z,73.48
2022-12-04T11:21:00.424Z,74.25
2022-12-04T11:23:27.507Z,72.94
2022-12-04T11:25:54.631Z,72.47
2022-12-04T11:28:41.275Z,73.11
2022-12-04T11:31:09.051Z,73.64
2022-12-04T11:33:37.230Z,74.23
2022-12-04T11:36:06.630Z,73.17
2022-12-04T11:38:33.933Z,73.55
2022-12-04T11:41:00.786Z,74.00
2022-12-04T11:43:28.543Z,73.45
2022-12-04T11:45:55.912Z,73.87
2022-12-04T11:48:22.653Z,74.03
2022-12-04T11:51:01.565Z,74.24
2022-12-04T11:53:44.406Z,74.45
2022-12-04T11:56:16.859Z,75.02
2022-12-04T11:58:51.506Z,74.59
2022-12-04T12:01:27.175Z,74.05
2022-12-04T12:04:02.761Z,74.29
2022-12-04T12:06:39.439Z,74.65
2022-12-04T12:09:05.908Z,74.05
2022-12-04T12:11:42.884Z,73.92
2022-12-04T12:14:09.475Z,74.10
2022-12-04T12:16:39.384Z,74.10
2022-12-04T12:19:08.497Z,74.26
2022-12-04T12:21:39.906Z,74.24
2022-12-04T12:24:12.822Z,74.13
2022-12-04T12:26:47.297Z,73.42
2022-12-04T12:29:13.903Z,73.65
2022-12-04T12:32:03.780Z,73.82
2022-12-04T12:34:40.566Z,73.29
2022-12-04T12:37:26.793Z,73.33
2022-12-04T12:39:57.405Z,73.53
2022-12-04T12:42:39.329Z,73.74
2022-12-04T12:45:24.617Z,73.53
2022-12-04T12:47:51.683Z,73.60
2022-12-04T12:50:22.510Z,73.45
2022-12-04T12:52:59.586Z,74.08
2022-12-04T12:55:27.587Z,73.67
2022-12-04T12:58:14.413Z,73.69
2022-12-04T13:00:45.669Z,74.25
2022-12-04T13:03:22.874Z,74.02
2022-12-04T13:05:50.619Z,73.68
2022-12-04T13:08:17.933Z,74.04
2022-12-04T13:10:46.251Z,74.53
2022-12-04T13:13:28.933Z,74.07
2022-12-04T13:15:57.326Z,73.85
2022-12-04T13:18:25.767Z,74.18
2022-12-04T13:20:53.283Z,74.07
2022-12-04T13:23:38.312Z,74.81
2022-12-04T13:26:04.901Z,74.71
2022-12-04T13:28:36.484Z,74.35
2022-12-04T13:31:16.229Z,74.55
2022-12-04T13:34:01.673Z,74.48
2022-12-04T13:36:40.726Z,74.51
2022-12-04T13:39:23.100Z,74.26
2022-12-04T13:41:56.110Z,74.17
2022-12-04T13:44:23.205Z,73.81
2022-12-04T13:46:52.628Z,74.58
2022-12-04T13:49:32.823Z,74.65
2022-12-04T13:52:00.136Z,74.96
2022-12-04T13:54:31.297Z,74.79
2022-12-04T13:57:15.473Z,74.96
2022-12-04T13:59:42.316Z,74.60
2022-12-04T14:02:26.098Z,74.92
2022-12-04T14:05:03.182Z,74.74
2022-12-04T14:07:32.813Z,74.49
2022-12-04T14:10:01.905Z,74.99
2022-12-04T14:12:29.345Z,75.14
2022-12-04T14:15:02.920Z,75.23
2022-12-04T14:17:33.489Z,75.68
2022-12-04T14:20:07.310Z,75.77
2022-12-04T14:22:34.750Z,75.78
2022-12-04T14:25:05.751Z,75.52
2022-12-04T14:27:34.853Z,75.97
2022-12-04T14:30:01.345Z,76.10
2022-12-04T14:32:29.101Z,76.32
2022-12-04T14:34:55.852Z,76.44
2022-12-04T14:37:27.862Z,75.91
2022-12-04T14:39:54.456Z,76.09
2022-12-04T14:42:23.315Z,76.44
2022-12-04T14:44:52.493Z,76.08
2022-12-04T14:47:19.019Z,76.53
2022-12-04T14:50:03.873Z,76.58
2022-12-04T14:52:36.684Z,76.27
2022-12-04T14:55:06.990Z,76.32
2022-12-04T14:57:36.590Z,76.37
2022-12-04T15:00:05.544Z,76.23
2022-12-04T15:02:38.972Z,76.82
2022-12-04T15:05:08.899Z,76.41
2022-12-04T15:07:35.520Z,76.79
2022-12-04T15:10:21.172Z,76.21
2022-12-04T15:12:49.388Z,76.61
2022-12-04T15:15:26.616Z,76.97
2022-12-04T15:17:57.256Z,76.86
2022-12-04T15:20:24.107Z,76.65
2022-12-04T15:22:50.659Z,76.49
2022-12-04T15:25:18.879Z,76.03
2022-12-04T15:27:45.659Z,76.25
2022-12-04T15:30:16.186Z,76.70
2022-12-04T15:32:46.817Z,76.54
2022-12-04T15:35:16.704Z,76.63
2022-12-04T15:37:43.779Z,77.10
2022-12-04T15:40:15.061Z,76.35
2022-12-04T15:42:44.849Z,76.13
2022-12-04T15:45:12.898Z,75.88
2022-12-04T15:47:43.978Z,76.11
2022-12-04T15:50:12.081Z,76.17
2022-12-04T15:52:38.885Z,76.21
2022-12-04T15:55:07.079Z,76.29
2022-12-04T15:57:37.240Z,76.25
2022-12-04T16:00:05.374Z,76.70
2022-12-04T16:02:33.348Z,76.79
2022-12-04T16:05:10.720Z,77.37
2022-12-04T16:07:37.342Z,77.47
2022-12-04T16:10:04.515Z,77.59
2022-12-04T16:12:31.965Z,77.31
2022-12-04T16:14:58.819Z,77.54
2022-12-04T16:17:31.866Z,77.54
2022-12-04T16:19:58.767Z,77.43
2022-12-04T16:22:26.384Z,77.88
2022-12-04T16:24:53.772Z,78.50
2022-12-04T16:27:22.867Z,78.53
2022-12-04T16:29:50.174Z,78.19
2022-12-04T16:32:17.349Z,78.62
2022-12-04T16:34:44.422Z,78.68
2022-12-04T16:37:14.965Z,78.53
2022-12-04T16:39:41.796Z,78.50
2022-12-04T16:42:15.544Z,78.54
2022-12-04T16:44:42.120Z,78.67
2022-12-04T16:47:09.435Z,78.41
2022-12-04T16:49:36.336Z,78.54
2022-12-04T16:52:03.928Z,78.58
2022-12-04T16:54:32.087Z,78.70
2022-12-04T16:56:58.796Z,79.13
2022-12-04T16:59:25.442Z,78.92
2022-12-04T17:01:52.673Z,80.04
2022-12-04T17:04:22.224Z,79.10
2022-12-04T17:06:53.963Z,78.69
2022-12-04T17:09:23.003Z,79.24
2022-12-04T17:11:52.593Z,78.89
2022-12-04T17:14:19.756Z,78.89
2022-12-04T17:16:47.628Z,78.81
2022-12-04T17:19:17.126Z,78.95
2022-12-04T17:21:45.365Z,78.79
2022-12-04T17:24:12.097Z,78.69
2022-12-04T17:26:38.809Z,78.71
2022-12-04T17:29:05.346Z,78.79
2022-12-04T17:31:31.862Z,78.49
2022-12-04T17:33:58.514Z,78.54
2022-12-04T17:36:26.264Z,78.24
2022-12-04T17:38:56.444Z,78.18
2022-12-04T17:41:23.032Z,78.41
2022-12-04T17:43:49.717Z,78.39
2022-12-04T17:46:19.821Z,78.95
2022-12-04T17:48:46.435Z,79.22
2022-12-04T17:51:17.456Z,79.80
2022-12-04T17:53:44.195Z,79.72
2022-12-04T17:56:12.526Z,79.27
2022-12-04T17:58:39.060Z,79.34
2022-12-04T18:01:06.967Z,79.57
2022-12-04T18:03:33.925Z,79.37
2022-12-04T18:06:01.483Z,79.49
2022-12-04T18:08:29.582Z,78.73
2022-12-04T18:10:56.744Z,78.79
2022-12-04T18:13:23.251Z,78.94
2022-12-04T18:15:49.802Z,78.86
2022-12-04T18:18:16.309Z,79.00
2022-12-04T18:20:42.905Z,78.52
2022-12-04T18:23:09.632Z,78.40
2022-12-04T18:25:36.370Z,78.17
2022-12-04T18:28:02.984Z,78.85
2022-12-04T18:30:30.493Z,78.69
2022-12-04T18:32:58.343Z,78.41
2022-12-04T18:35:24.853Z,78.89
2022-12-04T18:37:51.355Z,78.65
2022-12-04T18:40:18.014Z,79.00
2022-12-04T18:42:44.524Z,79.05
2022-12-04T18:45:11.741Z,79.10
2022-12-04T18:47:38.246Z,78.67
2022-12-04T18:50:04.978Z,78.63
2022-12-04T18:52:35.045Z,78.77
2022-12-04T18:55:01.776Z,78.90
2022-12-04T18:57:28.234Z,78.92
2022-12-04T18:59:55.067Z,78.79
2022-12-04T19:02:21.914Z,79.23
2022-12-04T19:04:48.481Z,79.42
2022-12-04T19:07:15.127Z,79.49
2022-12-04T19:10:09.985Z,79.46
2022-12-04T19:12:28.326Z,79.08
2022-12-04T19:14:55.098Z,79.48
2022-12-04T19:17:22.554Z,79.80
2022-12-04T19:19:49.070Z,79.57
2022-12-04T19:22:15.696Z,79.80
2022-12-04T19:24:44.226Z,80.34
2022-12-04T19:27:11.263Z,80.25
2022-12-04T19:29:38.618Z,80.39
2022-12-04T19:32:05.515Z,79.89
2022-12-04T19:34:32.089Z,80.10
2022-12-04T19:36:58.610Z,79.73
2022-12-04T19:39:25.118Z,79.86
2022-12-04T19:41:52.894Z,79.76
2022-12-04T19:47:08.144Z,79.75
2022-12-04T19:49:34.850Z,79.86
2022-12-04T19:52:01.332Z,79.83
2022-12-04T19:54:30.028Z,79.73
2022-12-04T19:56:56.556Z,80.02
2022-12-04T19:59:23.125Z,80.01
2022-12-04T20:01:49.949Z,79.98
2022-12-04T20:04:16.656Z,79.68
2022-12-04T20:06:44.369Z,79.91
2022-12-04T20:09:12.837Z,79.52
2022-12-04T20:11:39.593Z,79.79
2022-12-04T20:14:06.826Z,79.75
2022-12-04T20:16:33.826Z,79.86
2022-12-04T20:19:01.221Z,79.74
2022-12-04T20:21:30.646Z,79.91
2022-12-04T20:23:57.879Z,79.58
2022-12-04T20:26:25.648Z,79.91
2022-12-04T20:28:52.471Z,79.85
2022-12-04T20:31:23.476Z,79.80
2022-12-04T20:33:50.834Z,79.64
2022-12-04T20:36:18.959Z,80.00
2022-12-04T20:38:45.940Z,80.72
2022-12-04T20:41:16.214Z,80.64
2022-12-04T20:43:43.075Z,80.46
2022-12-04T20:46:13.878Z,80.18
2022-12-04T20:48:46.500Z,79.78
2022-12-04T20:51:13.520Z,79.79
2022-12-04T20:53:40.225Z,79.32
2022-12-04T20:56:07.221Z,79.44
2022-12-04T20:58:33.822Z,79.81
2022-12-04T21:01:10.858Z,79.23
2022-12-04T21:03:37.493Z,78.85
2022-12-04T21:06:04.655Z,79.38
2022-12-04T21:08:50.927Z,79.97
2022-12-04T21:11:17.591Z,79.96
2022-12-04T21:14:03.167Z,79.84
2022-12-04T21:16:29.807Z,79.62
2022-12-04T21:18:56.455Z,79.95
2022-12-04T21:21:23.088Z,79.81
2022-12-04T21:23:49.765Z,79.46
2022-12-04T21:26:18.030Z,79.86
2022-12-04T21:28:44.975Z,80.39
2022-12-04T21:31:11.820Z,79.79
2022-12-04T21:33:39.112Z,79.55
2022-12-04T21:36:07.784Z,79.91
2022-12-04T21:38:39.052Z,79.58
2022-12-04T21:41:08.833Z,79.61
2022-12-04T21:43:37.015Z,79.43
2022-12-04T21:46:09.225Z,79.66
2022-12-04T21:48:37.501Z,80.28
2022-12-04T21:51:16.826Z,80.13
2022-12-04T21:53:54.693Z,79.86
2022-12-04T21:56:21.642Z,80.06
2022-12-04T21:58:48.130Z,80.41
2022-12-04T22:01:18.311Z,80.65
2022-12-04T22:03:45.406Z,80.90
2022-12-04T22:06:13.973Z,80.88
2022-12-04T22:08:41.469Z,80.44
2022-12-04T22:11:08.816Z,81.16
2022-12-04T22:13:35.703Z,81.08
2022-12-04T22:16:03.562Z,80.87
2022-12-04T22:18:30.145Z,80.16
2022-12-04T22:20:57.684Z,80.29
2022-12-04T22:23:26.222Z,80.02
2022-12-04T22:25:52.866Z,80.19
2022-12-04T22:28:19.354Z,79.71
2022-12-04T22:30:45.905Z,79.41
2022-12-04T22:33:12.418Z,79.06
2022-12-04T22:35:39.052Z,79.00
2022-12-04T22:38:05.530Z,79.58
2022-12-04T22:40:32.130Z,79.54
2022-12-04T22:42:59.679Z,79.84
2022-12-04T22:45:26.178Z,79.61
2022-12-04T22:47:52.761Z,78.91
2022-12-04T22:50:19.301Z,78.75
2022-12-04T22:52:45.802Z,78.40
2022-12-04T22:55:12.863Z,78.32
2022-12-04T22:57:39.982Z,78.93
2022-12-04T23:00:06.931Z,79.12
2022-12-04T23:02:33.449Z,79.43
2022-12-04T23:05:00.168Z,80.02
2022-12-04T23:07:27.227Z,80.13
2022-12-04T23:09:54.336Z,79.93
2022-12-04T23:12:20.822Z,80.33
2022-12-04T23:14:47.419Z,80.39
2022-12-04T23:17:13.904Z,80.19
2022-12-04T23:19:40.453Z,80.53
2022-12-04T23:22:06.983Z,80.41
2022-12-04T23:24:33.588Z,80.42
2022-12-04T23:27:00.130Z,80.33
2022-12-04T23:29:52.103Z,80.19
2022-12-04T23:32:13.075Z,80.16
2022-12-04T23:34:39.997Z,79.67
2022-12-04T23:37:06.475Z,79.27
2022-12-04T23:39:33.019Z,79.10
2022-12-04T23:41:59.561Z,79.81
2022-12-04T23:44:26.107Z,80.40
2022-12-04T23:46:52.784Z,80.09
2022-12-04T23:49:19.392Z,79.09
2022-12-04T23:51:45.914Z,78.87
2022-12-04T23:54:12.473Z,79.37
2022-12-04T23:56:38.942Z,79.49
2022-12-04T23:59:05.549Z,79.42
